Time;durP1;ratioP1;P1;durP2;ratioP2;P2;SDS_P1;SDS_P2;PMS_P1;PMS_P2;Temp;Humidity;BMP_temperature;BMP_pressure;BME280_temperature;BME280_humidity;BME280_pressure;Samples;Min_cycle;Max_cycle;Signal;HPM_P1;HPM_P2
2023/08/04 00:00:09;;;;;;;8.75;3.00;;;;;;;;;;4946228;29;19923;-76
2023/08/04 00:02:35;;;;;;;7.80;2.47;;;;;;;;;;4966659;28;20067;-77
2023/08/04 00:05:02;;;;;;;10.30;2.72;;;;;;;;;;4934261;29;20051;-77
2023/08/04 00:07:28;;;;;;;7.63;2.70;;;;;;;;;;4951058;29;20043;-77
2023/08/04 00:09:54;;;;;;;;;;;;;;;;;;4948708;28;20066;-76
2023/08/04 00:12:20;;;;;;;6.78;2.70;;;;;;;;;;4967674;28;20007;-77
2023/08/04 00:14:46;;;;;;;;;;;;;;;;;;4950239;29;20058;-77
2023/08/04 00:17:12;;;;;;;8.73;2.88;;;;;;;;;;4966777;28;20462;-77
2023/08/04 00:19:38;;;;;;;;;;;;;;;;;;4952519;28;20400;-77
2023/08/04 00:22:04;;;;;;;9.15;2.97;;;;;;;;;;4970112;28;19977;-77
2023/08/04 00:24:30;;;;;;;;;;;;;;;;;;4972642;28;20131;-77
2023/08/04 00:26:56;;;;;;;12.75;2.90;;;;;;;;;;4951355;29;20435;-77
2023/08/04 00:29:22;;;;;;;;;;;;;;;;;;4949887;29;20316;-77
2023/08/04 00:31:48;;;;;;;9.23;3.22;;;;;;;;;;4967433;28;20387;-76
2023/08/04 00:34:14;;;;;;;;;;;;;;;;;;4967459;28;20061;-76
2023/08/04 00:36:40;;;;;;;9.30;2.75;;;;;;;;;;4977738;28;20431;-76
2023/08/04 00:39:06;;;;;;;;;;;;;;;;;;4986108;28;20125;-77
2023/08/04 00:41:32;;;;;;;8.30;2.80;;;;;;;;;;4985900;28;20018;-77
2023/08/04 00:43:58;;;;;;;;;;;;;;;;;;4938647;29;20055;-76
2023/08/04 00:46:26;;;;;;;9.30;3.30;;;;;;;;;;4966767;28;19922;-77
2023/08/04 00:48:52;;;;;;;13.52;3.15;;;;;;;;;;4967239;28;20452;-76
2023/08/04 00:51:18;;;;;;;9.48;3.10;;;;;;;;;;4966805;28;20110;-77
2023/08/04 00:53:44;;;;;;;;;;;;;;;;;;4981749;28;20082;-76
2023/08/04 00:56:10;;;;;;;10.82;3.10;;;;;;;;;;4969901;28;19969;-76
2023/08/04 00:58:36;;;;;;;;;;;;;;;;;;4985822;28;20059;-77
2023/08/04 01:01:02;;;;;;;8.15;3.10;;;;;;;;;;4967613;28;20012;-77
2023/08/04 01:03:28;;;;;;;;;;;;;;;;;;4997666;28;20511;-77
2023/08/04 01:06:02;;;;;;;12.55;3.45;;;;;;;;;;4990014;28;20268;-77
2023/08/04 01:08:31;;;;;;;9.55;2.92;;;;;;;;;;4974455;28;20054;-76
2023/08/04 01:11:03;;;;;;;10.80;2.90;;;;;;;;;;4943694;28;20113;-76
2023/08/04 01:13:30;;;;;;;11.70;3.55;;;;;;;;;;4981474;28;20108;-76
2023/08/04 01:15:56;;;;;;;11.70;3.10;;;;;;;;;;4989306;28;20053;-77
2023/08/04 01:18:22;;;;;;;9.63;3.15;;;;;;;;;;4988618;28;20057;-76
2023/08/04 01:20:48;;;;;;;;;;;;;;;;;;4989240;28;20129;-77
2023/08/04 01:23:15;;;;;;;10.10;3.13;;;;;;;;;;4971572;28;19965;-77
2023/08/04 01:25:42;;;;;;;11.50;3.20;;;;;;;;;;4989899;28;20051;-77
2023/08/04 01:28:15;;;;;;;10.07;3.30;;;;;;;;;;4978645;28;20379;-77
2023/08/04 01:30:46;;;;;;;6.45;3.00;;;;;;;;;;4972012;28;20051;-77
2023/08/04 01:33:12;;;;;;;11.95;3.35;;;;;;;;;;4954080;28;20050;-77
2023/08/04 01:35:38;;;;;;;14.55;3.80;;;;;;;;;;4964896;28;20452;-76
2023/08/04 01:38:04;;;;;;;;;;;;;;;;;;4985272;28;20080;-76
2023/08/04 01:40:30;;;;;;;10.43;3.83;;;;;;;;;;4972379;28;20287;-77
2023/08/04 01:42:56;;;;;;;;;;;;;;;;;;4969848;28;20058;-77
2023/08/04 01:45:22;;;;;;;11.25;3.88;;;;;;;;;;4980431;28;19922;-77
2023/08/04 01:47:48;;;;;;;;;;;;;;;;;;4988213;28;20046;-77
2023/08/04 01:50:14;;;;;;;10.82;4.03;;;;;;;;;;4987806;28;19922;-76
2023/08/04 01:52:40;;;;;;;;;;;;;;;;;;4983159;28;20523;-77
2023/08/04 01:55:06;;;;;;;13.18;4.82;;;;;;;;;;4988530;28;19926;-76
2023/08/04 01:57:32;;;;;;;12.55;4.38;;;;;;;;;;4987928;28;20077;-77
2023/08/04 01:59:58;;;;;;;;;;;;;;;;;;4944574;29;20058;-77
2023/08/04 02:02:24;;;;;;;10.93;4.38;;;;;;;;;;4969076;28;20280;-76
2023/08/04 02:04:50;;;;;;;;;;;;;;;;;;4953388;29;20055;-76
2023/08/04 02:07:16;;;;;;;11.40;4.28;;;;;;;;;;4969034;28;19922;-77
2023/08/04 02:09:42;;;;;;;11.80;4.80;;;;;;;;;;4972448;28;20059;-76
2023/08/04 02:12:08;;;;;;;;;;;;;;;;;;4988048;28;20411;-76
2023/08/04 02:14:34;;;;;;;9.38;4.03;;;;;;;;;;4975948;28;19930;-76
2023/08/04 02:17:00;;;;;;;;;;;;;;;;;;4969657;28;20657;-77
2023/08/04 02:19:26;;;;;;;11.57;4.00;;;;;;;;;;4968369;28;19957;-76
2023/08/04 02:21:52;;;;;;;;;;;;;;;;;;4956567;28;20128;-77
2023/08/04 02:24:18;;;;;;;13.77;4.30;;;;;;;;;;4987531;28;19981;-76
2023/08/04 02:26:45;;;;;;;12.70;4.30;;;;;;;;;;4988262;28;20050;-76
2023/08/04 02:29:11;;;;;;;9.43;4.18;;;;;;;;;;4971116;28;20065;-76
2023/08/04 02:31:38;;;;;;;13.50;4.60;;;;;;;;;;4987774;28;20105;-76
2023/08/04 02:34:04;;;;;;;12.98;4.25;;;;;;;;;;4986616;28;20057;-76
2023/08/04 02:36:30;;;;;;;;;;;;;;;;;;4938512;29;20138;-76
2023/08/04 02:38:56;;;;;;;12.20;4.22;;;;;;;;;;4968967;28;20024;-76
2023/08/04 02:41:22;;;;;;;;;;;;;;;;;;4968806;28;20516;-76
2023/08/04 02:43:48;;;;;;;14.77;4.22;;;;;;;;;;4980598;28;19922;-76
2023/08/04 02:46:14;;;;;;;9.77;3.65;;;;;;;;;;4988471;28;20052;-76
2023/08/04 02:48:40;;;;;;;;;;;;;;;;;;4988199;28;20503;-76
2023/08/04 02:51:07;;;;;;;13.55;4.15;;;;;;;;;;4971823;28;19922;-76
2023/08/04 02:53:34;;;;;;;13.13;3.92;;;;;;;;;;4935623;29;20054;-76
2023/08/04 02:56:00;;;;;;;19.73;3.97;;;;;;;;;;4968959;28;20066;-76
2023/08/04 02:58:26;;;;;;;;;;;;;;;;;;4980124;28;20090;-76
2023/08/04 03:00:55;;;;;;;18.08;4.70;;;;;;;;;;4978885;28;19984;-76
2023/08/04 03:03:21;;;;;;;13.75;4.32;;;;;;;;;;4968033;28;20054;-76
2023/08/04 03:05:47;;;;;;;;;;;;;;;;;;4937177;29;20110;-76
2023/08/04 03:08:14;;;;;;;13.18;4.03;;;;;;;;;;4984507;28;19926;-76
2023/08/04 03:10:41;;;;;;;10.25;3.63;;;;;;;;;;4987587;28;20061;-77
2023/08/04 03:13:07;;;;;;;12.32;3.72;;;;;;;;;;4986727;28;20531;-76
2023/08/04 03:15:34;;;;;;;15.55;4.47;;;;;;;;;;4948594;29;20121;-76
2023/08/04 03:18:00;;;;;;;15.50;4.22;;;;;;;;;;4952105;29;20051;-76
2023/08/04 03:20:26;;;;;;;;;;;;;;;;;;4952111;29;20047;-76
2023/08/04 03:22:52;;;;;;;9.98;3.85;;;;;;;;;;4978919;28;20052;-76
2023/08/04 03:25:18;;;;;;;;;;;;;;;;;;4955337;28;20404;-77
2023/08/04 03:27:44;;;;;;;10.90;4.15;;;;;;;;;;4983675;28;19930;-77
2023/08/04 03:30:10;;;;;;;;;;;;;;;;;;4983802;28;20061;-76
2023/08/04 03:32:36;;;;;;;8.57;4.63;;;;;;;;;;4975743;28;20012;-76
2023/08/04 03:35:02;;;;;;;;;;;;;;;;;;4987973;28;20130;-76
2023/08/04 03:37:28;;;;;;;12.48;4.72;;;;;;;;;;4987064;28;20423;-76
2023/08/04 03:39:54;;;;;;;;;;;;;;;;;;4987499;28;20061;-76
2023/08/04 03:42:20;;;;;;;15.13;5.25;;;;;;;;;;4986591;28;19926;-76
2023/08/04 03:44:46;;;;;;;;;;;;;;;;;;4934739;29;20117;-76
2023/08/04 03:47:12;;;;;;;12.02;4.82;;;;;;;;;;4952127;29;19926;-76
2023/08/04 03:49:38;;;;;;;10.98;4.78;;;;;;;;;;4951295;29;20043;-76
2023/08/04 03:52:04;;;;;;;;;;;;;;;;;;4964204;28;20066;-76
2023/08/04 03:54:30;;;;;;;9.93;4.95;;;;;;;;;;4970066;28;19925;-76
2023/08/04 03:56:56;;;;;;;;;;;;;;;;;;4987703;28;20054;-76
2023/08/04 03:59:22;;;;;;;13.80;4.95;;;;;;;;;;4965222;28;20016;-76
2023/08/04 04:01:48;;;;;;;10.32;4.55;;;;;;;;;;4970242;28;20050;-76
2023/08/04 04:04:14;;;;;;;;;;;;;;;;;;4987099;28;20515;-77
2023/08/04 04:06:40;;;;;;;10.05;5.10;;;;;;;;;;4986884;28;19925;-76
2023/08/04 04:09:06;;;;;;;;;;;;;;;;;;4987365;28;20125;-76
2023/08/04 04:11:32;;;;;;;12.77;5.22;;;;;;;;;;4986731;28;19937;-76
2023/08/04 04:13:58;;;;;;;;;;;;;;;;;;4983375;28;20105;-76
2023/08/04 04:16:26;;;;;;;11.75;4.88;;;;;;;;;;4957840;28;19930;-76
2023/08/04 04:18:52;;;;;;;9.32;4.68;;;;;;;;;;4940866;28;20057;-76
2023/08/04 04:21:18;;;;;;;;;;;;;;;;;;4987510;28;20061;-76
2023/08/04 04:23:44;;;;;;;11.63;4.90;;;;;;;;;;4970073;28;19926;-76
2023/08/04 04:26:10;;;;;;;11.75;5.30;;;;;;;;;;4986971;28;20051;-77
2023/08/04 04:28:36;;;;;;;;;;;;;;;;;;4966010;28;20142;-76
2023/08/04 04:31:03;;;;;;;11.10;4.97;;;;;;;;;;4951765;29;20061;-76
2023/08/04 04:33:29;;;;;;;17.58;5.30;;;;;;;;;;4968803;28;20058;-77
2023/08/04 04:35:55;;;;;;;13.10;5.40;;;;;;;;;;4984708;28;20393;-76
2023/08/04 04:38:26;;;;;;;;;;;;;;;;;;4971833;28;20059;-76
2023/08/04 04:40:56;;;;;;;10.52;5.10;;;;;;;;;;4970801;28;19931;-76
2023/08/04 04:43:22;;;;;;;10.68;5.10;;;;;;;;;;4955614;28;20045;-76
2023/08/04 04:45:48;;;;;;;;;;;;;;;;;;4989990;28;20178;-76
2023/08/04 04:48:14;;;;;;;12.02;5.35;;;;;;;;;;4988048;28;20390;-76
2023/08/04 04:50:40;;;;;;;;;;;;;;;;;;4990459;28;20085;-76
2023/08/04 04:53:06;;;;;;;9.90;5.30;;;;;;;;;;4989898;28;19988;-76
2023/08/04 04:55:31;;;;;;;;;;;;;;;;;;4990217;28;20047;-77
2023/08/04 04:57:58;;;;;;;9.45;4.97;;;;;;;;;;4971026;28;19930;-76
2023/08/04 05:00:24;;;;;;;;;;;;;;;;;;4978612;28;20493;-76
2023/08/04 05:02:50;;;;;;;11.07;5.50;;;;;;;;;;4983867;28;19926;-76
2023/08/04 05:05:16;;;;;;;13.65;5.38;;;;;;;;;;4985619;28;20083;-76
2023/08/04 05:07:42;;;;;;;;;;;;;;;;;;4957505;28;20043;-76
2023/08/04 05:10:09;;;;;;;10.90;5.85;;;;;;;;;;4985220;28;20280;-76
2023/08/04 05:12:35;;;;;;;13.20;5.63;;;;;;;;;;4969439;28;20053;-76
2023/08/04 05:15:01;;;;;;;;;;;;;;;;;;4945336;28;20047;-77
2023/08/04 05:17:27;;;;;;;13.70;5.28;;;;;;;;;;4971585;28;19934;-76
2023/08/04 05:19:53;;;;;;;;;;;;;;;;;;4954032;29;20126;-76
2023/08/04 05:22:19;;;;;;;15.57;5.68;;;;;;;;;;4970666;28;20013;-76
2023/08/04 05:24:45;;;;;;;11.45;5.40;;;;;;;;;;4969691;28;20134;-76
2023/08/04 05:27:11;;;;;;;;;;;;;;;;;;4938943;29;20477;-76
2023/08/04 05:29:37;;;;;;;11.57;5.15;;;;;;;;;;4968611;28;19926;-76
2023/08/04 05:32:03;;;;;;;;;;;;;;;;;;4989111;28;20059;-76
2023/08/04 05:34:29;;;;;;;12.23;5.38;;;;;;;;;;4960459;28;19926;-76
2023/08/04 05:36:55;;;;;;;;;;;;;;;;;;4942925;28;20585;-76
2023/08/04 05:39:21;;;;;;;8.55;4.47;;;;;;;;;;4956339;28;19922;-76
2023/08/04 05:41:48;;;;;;;;;;;;;;;;;;4956910;28;20185;-76
2023/08/04 05:44:14;;;;;;;11.93;4.85;;;;;;;;;;4971953;28;19930;-76
2023/08/04 05:46:40;;;;;;;;;;;;;;;;;;4973512;28;20051;-76
2023/08/04 05:49:06;;;;;;;13.02;4.90;;;;;;;;;;4970087;28;20391;-76
2023/08/04 05:51:32;;;;;;;11.30;4.55;;;;;;;;;;4947036;28;20412;-76
2023/08/04 05:53:58;;;;;;;;;;;;;;;;;;4988790;28;20051;-76
2023/08/04 05:56:24;;;;;;;14.80;5.45;;;;;;;;;;4963858;28;19934;-76
2023/08/04 05:58:50;;;;;;;;;;;;;;;;;;4938857;29;20047;-76
2023/08/04 06:01:16;;;;;;;12.32;5.07;;;;;;;;;;4981448;28;19922;-76
2023/08/04 06:03:43;;;;;;;10.93;5.00;;;;;;;;;;4987699;28;20054;-76
2023/08/04 06:06:10;;;;;;;8.77;4.75;;;;;;;;;;4956806;28;20055;-76
2023/08/04 06:08:36;;;;;;;11.77;4.53;;;;;;;;;;4956174;28;20043;-77
2023/08/04 06:11:02;;;;;;;12.82;4.60;;;;;;;;;;4988774;28;20516;-76
2023/08/04 06:13:28;;;;;;;;;;;;;;;;;;4988268;28;20047;-76
2023/08/04 06:15:54;;;;;;;15.85;4.93;;;;;;;;;;4979400;28;20359;-76
2023/08/04 06:18:20;;;;;;;;;;;;;;;;;;4953015;29;20059;-76
2023/08/04 06:20:47;;;;;;;10.73;4.38;;;;;;;;;;4956762;28;20350;-76
2023/08/04 06:23:13;;;;;;;12.98;4.90;;;;;;;;;;4968173;28;20083;-76
2023/08/04 06:25:39;;;;;;;10.15;4.60;;;;;;;;;;4936861;29;20047;-77
2023/08/04 06:28:05;;;;;;;;;;;;;;;;;;4952766;28;20069;-76
2023/08/04 06:30:32;;;;;;;9.30;4.53;;;;;;;;;;4968961;28;19923;-76
2023/08/04 06:32:58;;;;;;;13.02;4.55;;;;;;;;;;4968584;28;20975;-76
2023/08/04 06:35:24;;;;;;;;;;;;;;;;;;4969734;28;20417;-76
2023/08/04 06:37:51;;;;;;;9.23;4.20;;;;;;;;;;4978478;28;19930;-76
2023/08/04 06:40:17;;;;;;;11.13;4.03;;;;;;;;;;4937141;29;20098;-76
2023/08/04 06:42:43;;;;;;;9.45;3.83;;;;;;;;;;4935487;29;20047;-76
2023/08/04 06:45:09;;;;;;;10.48;3.35;;;;;;;;;;4974701;28;20039;-76
2023/08/04 06:47:35;;;;;;;;;;;;;;;;;;4962799;28;20460;-76
2023/08/04 06:50:01;;;;;;;10.93;3.33;;;;;;;;;;4952215;29;20399;-76
2023/08/04 06:52:27;;;;;;;9.02;3.22;;;;;;;;;;4936986;29;20126;-76
2023/08/04 06:54:54;;;;;;;;;;;;;;;;;;4968420;28;20055;-76
2023/08/04 06:57:20;;;;;;;7.28;3.25;;;;;;;;;;4954208;28;19925;-76
2023/08/04 06:59:46;;;;;;;;;;;;;;;;;;4986165;28;20400;-76
2023/08/04 07:02:12;;;;;;;4.80;2.47;;;;;;;;;;4982451;28;19926;-76
2023/08/04 07:04:38;;;;;;;;;;;;;;;;;;4984910;28;20086;-76
2023/08/04 07:07:04;;;;;;;11.02;3.22;;;;;;;;;;4971779;28;20527;-76
2023/08/04 07:09:30;;;;;;;7.32;2.83;;;;;;;;;;4952315;29;20051;-76
2023/08/04 07:11:56;;;;;;;;;;;;;;;;;;4952540;29;20058;-76
2023/08/04 07:14:22;;;;;;;7.50;2.50;;;;;;;;;;4983614;28;19922;-76
2023/08/04 07:16:48;;;;;;;;;;;;;;;;;;4952602;29;20098;-76
2023/08/04 07:19:17;;;;;;;7.38;2.10;;;;;;;;;;4983229;28;19974;-76
2023/08/04 07:21:46;;;;;;;6.68;2.25;;;;;;;;;;4929965;29;20048;-76
2023/08/04 07:24:12;;;;;;;4.75;2.10;;;;;;;;;;4946786;29;20058;-77
2023/08/04 07:26:38;;;;;;;6.07;2.20;;;;;;;;;;4951875;29;20042;-75
2023/08/04 07:29:04;;;;;;;;;;;;;;;;;;4934800;29;20055;-70
2023/08/04 07:31:31;;;;;;;5.00;2.28;;;;;;;;;;4951936;29;20001;-72
2023/08/04 07:33:58;;;;;;;5.63;1.65;;;;;;;;;;4952651;28;20051;-73
2023/08/04 07:36:24;;;;;;;6.10;2.53;;;;;;;;;;4953305;29;20584;-73
2023/08/04 07:38:50;;;;;;;;;;;;;;;;;;4947870;29;20142;-74
2023/08/04 07:41:20;;;;;;;4.05;1.95;;;;;;;;;;4964713;28;19978;-72
2023/08/04 07:43:46;;;;;;;6.75;1.80;;;;;;;;;;4931730;29;20087;-76
2023/08/04 07:46:13;;;;;;;;;;;;;;;;;;4945220;29;20047;-71
2023/08/04 07:48:39;;;;;;;5.72;1.80;;;;;;;;;;4951940;29;19922;-72
2023/08/04 07:51:05;;;;;;;;;;;;;;;;;;4953004;29;20083;-72
2023/08/04 07:53:31;;;;;;;5.97;1.90;;;;;;;;;;4983783;28;20021;-72
2023/08/04 07:55:58;;;;;;;5.00;1.75;;;;;;;;;;4951066;29;20059;-71
2023/08/04 07:58:24;;;;;;;3.05;1.42;;;;;;;;;;4950660;29;20055;-73
2023/08/04 08:00:50;;;;;;;4.35;1.70;;;;;;;;;;4951326;29;20058;-73
2023/08/04 08:03:16;;;;;;;;;;;;;;;;;;4948033;28;20468;-77
2023/08/04 08:05:42;;;;;;;4.05;1.58;;;;;;;;;;4975652;28;19926;-76
2023/08/04 08:08:08;;;;;;;;;;;;;;;;;;4935199;28;20049;-76
2023/08/04 08:10:34;;;;;;;3.95;1.85;;;;;;;;;;4976422;28;20019;-76
2023/08/04 08:13:02;;;;;;;;;;;;;;;;;;4945973;28;20138;-76
2023/08/04 08:15:28;;;;;;;5.07;1.83;;;;;;;;;;4954709;28;19929;-76
2023/08/04 08:17:54;;;;;;;;;;;;;;;;;;4955319;28;20520;-77
2023/08/04 08:20:20;;;;;;;2.45;1.40;;;;;;;;;;4986485;28;19922;-76
2023/08/04 08:22:46;;;;;;;2.67;1.65;;;;;;;;;;4946398;28;20054;-76
2023/08/04 08:25:12;;;;;;;;;;;;;;;;;;4954840;28;20074;-76
2023/08/04 08:27:38;;;;;;;2.67;1.40;;;;;;;;;;4987318;28;19922;-76
2023/08/04 08:30:05;;;;;;;4.07;1.42;;;;;;;;;;4953497;28;20051;-75
2023/08/04 08:32:31;;;;;;;2.35;1.45;;;;;;;;;;4952891;28;20047;-76
2023/08/04 08:34:57;;;;;;;;;;;;;;;;;;4951699;28;20058;-76
2023/08/04 08:37:23;;;;;;;3.20;1.63;;;;;;;;;;4962512;28;20283;-76
2023/08/04 08:39:49;;;;;;;;;;;;;;;;;;4950164;29;20052;-76
2023/08/04 08:42:15;;;;;;;3.90;1.60;;;;;;;;;;4977635;28;19926;-76
2023/08/04 08:44:41;;;;;;;4.10;1.40;;;;;;;;;;4918573;28;20091;-76
2023/08/04 08:47:07;;;;;;;;;;;;;;;;;;4935192;28;20063;-76
2023/08/04 08:49:36;;;;;;;5.28;1.52;;;;;;;;;;4966697;28;19927;-76
2023/08/04 08:52:06;;;;;;;3.78;1.50;;;;;;;;;;4940804;28;20043;-76
2023/08/04 08:54:33;;;;;;;4.68;1.60;;;;;;;;;;4936930;28;20055;-77
2023/08/04 08:57:00;;;;;;;3.13;1.50;;;;;;;;;;4945344;28;20082;-74
2023/08/04 08:59:26;;;;;;;3.65;1.70;;;;;;;;;;4935210;28;20047;-73
2023/08/04 09:01:54;;;;;;;3.00;1.60;;;;;;;;;;4934650;28;20130;-76
2023/08/04 09:04:21;;;;;;;4.72;1.90;;;;;;;;;;4950415;28;20063;-75
2023/08/04 09:06:47;;;;;;;2.90;1.80;;;;;;;;;;4979852;28;20133;-76
2023/08/04 09:09:13;;;;;;;5.72;1.77;;;;;;;;;;4934098;28;20123;-76
2023/08/04 09:11:39;;;;;;;;;;;;;;;;;;4973364;28;20486;-76
2023/08/04 09:14:06;;;;;;;7.28;1.50;;;;;;;;;;4974115;28;19926;-76
2023/08/04 09:16:33;;;;;;;2.20;1.50;;;;;;;;;;4937744;28;20379;-77
2023/08/04 09:19:06;;;;;;;3.33;1.70;;;;;;;;;;4980229;28;20556;-73
2023/08/04 09:21:32;;;;;;;4.53;1.40;;;;;;;;;;4952350;28;20047;-76
2023/08/04 09:23:58;;;;;;;6.60;1.92;;;;;;;;;;4945524;28;20051;-76
2023/08/04 09:26:24;;;;;;;;;;;;;;;;;;4949078;28;20044;-76
2023/08/04 09:29:04;;;;;;;2.15;1.42;;;;;;;;;;4949648;28;19926;-75
2023/08/04 09:31:37;;;;;;;6.32;1.70;;;;;;;;;;4954198;28;20065;-77
2023/08/04 09:34:04;;;;;;;5.55;1.60;;;;;;;;;;4952532;28;20043;-73
2023/08/04 09:36:30;;;;;;;4.63;1.50;;;;;;;;;;4944975;28;20061;-78
2023/08/04 09:39:04;;;;;;;3.75;1.40;;;;;;;;;;4950738;28;20569;-76
2023/08/04 09:41:33;;;;;;;4.22;1.80;;;;;;;;;;4950889;28;20086;-76
2023/08/04 09:44:03;;;;;;;3.65;1.50;;;;;;;;;;4951688;28;20441;-77
2023/08/04 09:46:29;;;;;;;3.78;1.40;;;;;;;;;;4953611;28;20374;-74
2023/08/04 09:48:55;;;;;;;;;;;;;;;;;;4950061;28;20048;-72
2023/08/04 09:51:21;;;;;;;3.95;1.90;;;;;;;;;;4946986;28;20372;-76
2023/08/04 09:53:47;;;;;;;;;;;;;;;;;;4953849;28;20106;-76
2023/08/04 09:56:14;;;;;;;1.83;1.20;;;;;;;;;;4985563;28;19926;-76
2023/08/04 09:58:41;;;;;;;2.97;1.10;;;;;;;;;;4951110;28;20127;-75
2023/08/04 10:01:07;;;;;;;0.95;0.90;;;;;;;;;;4976853;28;20106;-74
2023/08/04 10:03:34;;;;;;;2.13;1.13;;;;;;;;;;4950561;28;20090;-75
2023/08/04 10:06:01;;;;;;;2.25;1.17;;;;;;;;;;4964763;28;20134;-77
2023/08/04 10:08:31;;;;;;;2.30;1.20;;;;;;;;;;4945134;28;20051;-73
2023/08/04 10:10:58;;;;;;;3.10;1.35;;;;;;;;;;4943339;28;20051;-75
2023/08/04 10:13:28;;;;;;;4.47;1.25;;;;;;;;;;4952761;28;20051;-75
2023/08/04 10:15:55;;;;;;;1.60;1.05;;;;;;;;;;4954433;28;20552;-72
2023/08/04 10:18:23;;;;;;;3.42;1.58;;;;;;;;;;4953661;28;20043;-72
2023/08/04 10:20:50;;;;;;;2.80;1.10;;;;;;;;;;4953808;28;20047;-75
2023/08/04 10:23:16;;;;;;;2.42;1.20;;;;;;;;;;4936794;29;20055;-73
2023/08/04 10:25:42;;;;;;;;;;;;;;;;;;4939346;29;20529;-72
2023/08/04 10:28:10;;;;;;;2.90;1.30;;;;;;;;;;4977032;28;20054;-73
2023/08/04 10:30:37;;;;;;;2.15;1.10;;;;;;;;;;4954759;29;20039;-73
2023/08/04 10:33:02;;;;;;;;;;;;;;;;;;4954085;28;20392;-77
2023/08/04 10:35:28;;;;;;;3.45;1.30;;;;;;;;;;4954397;28;19923;-72
2023/08/04 10:37:54;;;;;;;;;;;;;;;;;;4954684;29;20055;-73
2023/08/04 10:40:28;;;;;;;3.78;1.17;;;;;;;;;;4954477;28;20295;-72
2023/08/04 10:43:04;;;;;;;2.33;1.08;;;;;;;;;;4953696;28;20055;-73
2023/08/04 10:45:52;;;;;;;1.13;1.00;;;;;;;;;;4953452;29;20039;-74
2023/08/04 10:48:20;;;;;;;3.03;1.38;;;;;;;;;;4951386;29;20126;-72
2023/08/04 10:50:46;;;;;;;4.90;1.73;;;;;;;;;;4951676;29;20066;-73
2023/08/04 10:53:12;;;;;;;4.50;1.60;;;;;;;;;;4952462;29;20415;-73
2023/08/04 10:55:50;;;;;;;3.75;1.83;;;;;;;;;;4952363;29;20047;-73
2023/08/04 10:58:16;;;;;;;6.80;1.92;;;;;;;;;;4932842;29;20051;-72
2023/08/04 11:00:41;;;;;;;;;;;;;;;;;;4952977;29;20133;-72
2023/08/04 11:03:08;;;;;;;7.47;1.90;;;;;;;;;;4951987;29;19956;-75
2023/08/04 11:05:34;;;;;;;3.67;1.55;;;;;;;;;;4949659;28;20844;-75
2023/08/04 11:08:00;;;;;;;;;;;;;;;;;;4939690;29;20059;-75
2023/08/04 11:10:26;;;;;;;9.38;2.00;;;;;;;;;;4954426;28;20516;-75
2023/08/04 11:12:53;;;;;;;4.97;1.63;;;;;;;;;;4950835;28;20162;-76
2023/08/04 11:15:19;;;;;;;5.75;1.60;;;;;;;;;;4950547;28;20489;-75
2023/08/04 11:17:45;;;;;;;;;;;;;;;;;;4983997;28;20047;-75
2023/08/04 11:20:12;;;;;;;4.90;2.40;;;;;;;;;;4970703;28;19922;-76
2023/08/04 11:22:38;;;;;;;7.97;2.47;;;;;;;;;;4952028;28;20146;-75
2023/08/04 11:25:04;;;;;;;;;;;;;;;;;;4950896;28;20054;-75
2023/08/04 11:27:30;;;;;;;8.70;2.95;;;;;;;;;;4983905;28;19926;-74
2023/08/04 11:29:56;;;;;;;8.75;2.60;;;;;;;;;;4950163;28;20490;-74
2023/08/04 11:32:24;;;;;;;;;;;;;;;;;;4952079;28;20053;-74
2023/08/04 11:34:50;;;;;;;9.52;2.72;;;;;;;;;;4982884;28;19926;-75
2023/08/04 11:37:17;;;;;;;8.65;2.70;;;;;;;;;;4950938;28;20122;-74
2023/08/04 11:39:43;;;;;;;5.90;2.92;;;;;;;;;;4983548;28;20126;-74
2023/08/04 11:42:09;;;;;;;;;;;;;;;;;;4952147;28;20043;-77
2023/08/04 11:44:35;;;;;;;5.32;2.25;;;;;;;;;;4980487;28;20571;-75
2023/08/04 11:47:01;;;;;;;;;;;;;;;;;;4942441;28;20134;-74
2023/08/04 11:49:29;;;;;;;3.40;1.75;;;;;;;;;;4955876;28;20030;-75
2023/08/04 11:51:55;;;;;;;6.50;1.63;;;;;;;;;;4939207;28;20480;-73
2023/08/04 11:54:22;;;;;;;3.97;1.63;;;;;;;;;;4951870;28;20080;-72
2023/08/04 11:56:55;;;;;;;4.47;1.45;;;;;;;;;;4953507;28;20051;-77
2023/08/04 11:59:21;;;;;;;4.55;1.40;;;;;;;;;;4951511;28;20047;-73
2023/08/04 12:01:47;;;;;;;4.30;1.40;;;;;;;;;;4946959;28;20075;-73
2023/08/04 12:04:23;;;;;;;3.10;1.27;;;;;;;;;;4943343;28;20102;-76
2023/08/04 12:07:02;;;;;;;3.85;1.50;;;;;;;;;;4953581;28;20126;-73
2023/08/04 12:09:29;;;;;;;4.07;1.35;;;;;;;;;;4950218;28;20048;-74
2023/08/04 12:11:55;;;;;;;3.55;1.27;;;;;;;;;;4951902;28;20043;-76
2023/08/04 12:14:22;;;;;;;6.95;1.75;;;;;;;;;;4947256;28;20127;-76
2023/08/04 12:17:01;;;;;;;10.90;2.00;;;;;;;;;;4948420;28;20050;-72
2023/08/04 12:19:28;;;;;;;4.90;1.70;;;;;;;;;;4934652;28;20051;-71
2023/08/04 12:21:57;;;;;;;9.23;2.45;;;;;;;;;;4938091;28;20126;-74
2023/08/04 12:24:23;;;;;;;8.23;2.10;;;;;;;;;;4937000;28;20056;-74
2023/08/04 12:26:49;;;;;;;5.38;2.05;;;;;;;;;;4933506;28;20509;-75
2023/08/04 12:29:15;;;;;;;4.40;2.00;;;;;;;;;;4915939;29;20074;-76
2023/08/04 12:31:41;;;;;;;5.55;2.47;;;;;;;;;;4945759;28;20059;-74
2023/08/04 12:34:09;;;;;;;10.35;2.30;;;;;;;;;;4933056;28;20483;-74
2023/08/04 12:36:35;;;;;;;5.82;1.95;;;;;;;;;;4932977;29;20051;-74
2023/08/04 12:39:03;;;;;;;;;;;;;;;;;;4917747;28;20054;-74
2023/08/04 12:41:29;;;;;;;7.05;1.98;;;;;;;;;;4956056;28;19985;-74
2023/08/04 12:43:55;;;;;;;;;;;;;;;;;;4951616;28;20047;-74
2023/08/04 12:46:21;;;;;;;6.80;2.10;;;;;;;;;;4984367;28;19931;-74
2023/08/04 12:48:47;;;;;;;4.47;1.92;;;;;;;;;;4936065;29;20540;-74
2023/08/04 12:51:13;;;;;;;5.85;2.00;;;;;;;;;;4952052;29;20166;-75
2023/08/04 12:53:39;;;;;;;6.65;2.05;;;;;;;;;;4966788;28;20131;-75
2023/08/04 12:56:05;;;;;;;4.70;1.60;;;;;;;;;;4985559;28;20039;-72
2023/08/04 12:58:31;;;;;;;4.88;1.80;;;;;;;;;;4953625;29;20133;-72
2023/08/04 13:00:57;;;;;;;6.47;1.85;;;;;;;;;;4947790;29;20055;-72
2023/08/04 13:03:23;;;;;;;4.22;1.85;;;;;;;;;;4953427;28;20051;-73
2023/08/04 13:05:49;;;;;;;4.82;1.60;;;;;;;;;;4966757;28;20059;-73
2023/08/04 13:08:15;;;;;;;8.40;1.77;;;;;;;;;;4966967;28;20129;-73
2023/08/04 13:10:42;;;;;;;6.53;1.73;;;;;;;;;;4967061;28;20386;-73
2023/08/04 13:13:08;;;;;;;5.45;2.10;;;;;;;;;;4938952;29;20047;-75
2023/08/04 13:15:34;;;;;;;5.75;1.88;;;;;;;;;;4951058;29;20063;-73
2023/08/04 13:18:00;;;;;;;4.75;1.50;;;;;;;;;;4936161;29;20453;-73
2023/08/04 13:20:26;;;;;;;5.18;1.90;;;;;;;;;;4937206;29;20401;-73
2023/08/04 13:22:52;;;;;;;5.28;1.80;;;;;;;;;;4937073;29;20126;-74
2023/08/04 13:25:18;;;;;;;4.80;1.45;;;;;;;;;;4937520;29;20075;-73
2023/08/04 13:27:44;;;;;;;5.97;1.60;;;;;;;;;;4936639;29;20049;-76
2023/08/04 13:30:10;;;;;;;5.55;1.73;;;;;;;;;;4936418;29;20074;-73
2023/08/04 13:32:36;;;;;;;3.92;1.20;;;;;;;;;;4939503;29;20311;-74
2023/08/04 13:35:03;;;;;;;4.20;1.50;;;;;;;;;;4987413;28;20043;-73
2023/08/04 13:37:29;;;;;;;5.03;1.58;;;;;;;;;;4937528;29;20378;-73
2023/08/04 13:39:55;;;;;;;4.50;1.73;;;;;;;;;;4935574;29;20489;-73
2023/08/04 13:42:21;;;;;;;5.82;1.85;;;;;;;;;;4946553;28;20398;-73
2023/08/04 13:44:47;;;;;;;4.45;1.60;;;;;;;;;;4953520;28;20127;-73
2023/08/04 13:47:13;;;;;;;4.75;1.60;;;;;;;;;;4954607;29;20052;-72
2023/08/04 13:49:40;;;;;;;2.95;1.30;;;;;;;;;;4954665;29;20096;-72
2023/08/04 13:52:06;;;;;;;2.45;1.27;;;;;;;;;;4935688;29;20051;-73
2023/08/04 13:54:32;;;;;;;4.50;1.40;;;;;;;;;;4953253;29;20051;-73
2023/08/04 13:56:58;;;;;;;2.40;1.23;;;;;;;;;;4986972;28;20050;-70
2023/08/04 13:59:24;;;;;;;3.00;1.30;;;;;;;;;;4953509;28;20047;-71
2023/08/04 14:01:50;;;;;;;3.40;1.50;;;;;;;;;;4950559;28;20062;-69
2023/08/04 14:04:16;;;;;;;3.50;1.35;;;;;;;;;;4957398;28;20066;-69
2023/08/04 14:06:42;;;;;;;4.15;1.48;;;;;;;;;;4957318;28;20070;-70
2023/08/04 14:09:08;;;;;;;5.40;1.60;;;;;;;;;;4957665;28;20042;-70
2023/08/04 14:11:34;;;;;;;3.05;1.33;;;;;;;;;;4976766;28;20117;-69
2023/08/04 14:14:00;;;;;;;2.35;1.05;;;;;;;;;;4970082;28;20047;-70
2023/08/04 14:16:26;;;;;;;2.30;1.17;;;;;;;;;;4944444;28;20126;-71
2023/08/04 14:18:52;;;;;;;4.38;1.20;;;;;;;;;;4973635;28;20499;-69
2023/08/04 14:21:18;;;;;;;3.65;1.30;;;;;;;;;;4968514;28;20404;-69
2023/08/04 14:23:44;;;;;;;3.10;1.13;;;;;;;;;;4963021;28;20148;-69
2023/08/04 14:26:10;;;;;;;2.90;1.30;;;;;;;;;;4965891;28;20054;-70
2023/08/04 14:28:37;;;;;;;3.40;1.48;;;;;;;;;;4952524;28;20047;-69
2023/08/04 14:31:03;;;;;;;3.03;1.23;;;;;;;;;;4969102;28;20051;-71
2023/08/04 14:33:29;;;;;;;3.65;1.30;;;;;;;;;;4964908;28;20500;-71
2023/08/04 14:35:55;;;;;;;1.58;1.17;;;;;;;;;;4973190;28;20046;-70
2023/08/04 14:38:21;;;;;;;6.22;1.40;;;;;;;;;;4972842;28;20096;-70
2023/08/04 14:40:47;;;;;;;5.60;1.70;;;;;;;;;;4972247;28;20043;-70
2023/08/04 14:43:13;;;;;;;4.28;1.40;;;;;;;;;;4955862;28;20051;-70
2023/08/04 14:45:39;;;;;;;4.15;1.20;;;;;;;;;;4973287;28;20062;-70
2023/08/04 14:48:05;;;;;;;3.83;1.40;;;;;;;;;;4969375;28;20082;-70
2023/08/04 14:50:31;;;;;;;4.55;1.50;;;;;;;;;;4988818;28;20495;-72
2023/08/04 14:52:57;;;;;;;4.95;1.20;;;;;;;;;;4968320;28;20451;-70
2023/08/04 14:55:23;;;;;;;2.22;0.98;;;;;;;;;;4954711;28;20172;-70
2023/08/04 14:57:49;;;;;;;3.80;1.13;;;;;;;;;;4955312;28;20902;-70
2023/08/04 15:00:15;;;;;;;3.47;1.25;;;;;;;;;;4967901;28;20070;-70
2023/08/04 15:02:41;;;;;;;1.58;1.08;;;;;;;;;;4955514;28;20051;-70